sensor_id;sensor_type;location;lat;lon;timestamp;pressure;altitude;pressure_sealevel;temperature;humidity
40574;BME280;26283;49.020;8.644;2023-02-18T00:00:11;100203.78;;;11.92;59.35
40574;BME280;26283;49.020;8.644;2023-02-18T00:02:37;100191.31;;;11.91;59.35
40574;BME280;26283;49.020;8.644;2023-02-18T00:05:03;100182.16;;;11.92;59.32
40574;BME280;26283;49.020;8.644;2023-02-18T00:07:33;100192.13;;;11.91;59.31
40574;BME280;26283;49.020;8.644;2023-02-18T00:09:59;100195.66;;;11.92;59.32
40574;BME280;26283;49.020;8.644;2023-02-18T00:12:24;100204.59;;;11.92;59.34
40574;BME280;26283;49.020;8.644;2023-02-18T00:14:50;100203.78;;;11.92;59.34
40574;BME280;26283;49.020;8.644;2023-02-18T00:17:15;100197.53;;;11.91;59.34
40574;BME280;26283;49.020;8.644;2023-02-18T00:19:41;100185.69;;;11.92;59.35
40574;BME280;26283;49.020;8.644;2023-02-18T00:22:06;100209.16;;;11.92;59.34
40574;BME280;26283;49.020;8.644;2023-02-18T00:24:32;100200.03;;;11.93;59.35
40574;BME280;26283;49.020;8.644;2023-02-18T00:26:57;100191.94;;;11.93;59.34
40574;BME280;26283;49.020;8.644;2023-02-18T00:29:22;100186.53;;;11.93;59.32
40574;BME280;26283;49.020;8.644;2023-02-18T00:31:48;100200.03;;;11.93;59.31
40574;BME280;26283;49.020;8.644;2023-02-18T00:34:13;100186.53;;;11.93;59.29
40574;BME280;26283;49.020;8.644;2023-02-18T00:36:39;100186.53;;;11.93;59.28
40574;BME280;26283;49.020;8.644;2023-02-18T00:39:06;100184.66;;;11.93;59.28
40574;BME280;26283;49.020;8.644;2023-02-18T00:41:33;100191.09;;;11.92;59.28
40574;BME280;26283;49.020;8.644;2023-02-18T00:43:59;100177.59;;;11.92;59.27
40574;BME280;26283;49.020;8.644;2023-02-18T00:46:25;100175.72;;;11.93;59.29
40574;BME280;26283;49.020;8.644;2023-02-18T00:48:51;100183.81;;;11.93;59.30
40574;BME280;26283;49.020;8.644;2023-02-18T00:51:16;100191.94;;;11.93;59.30
40574;BME280;26283;49.020;8.644;2023-02-18T00:53:44;100196.28;;;11.94;59.28
40574;BME280;26283;49.020;8.644;2023-02-18T00:56:10;100182.78;;;11.94;59.27
40574;BME280;26283;49.020;8.644;2023-02-18T00:58:36;100182.78;;;11.94;59.26
40574;BME280;26283;49.020;8.644;2023-02-18T01:01:03;100194.44;;;11.94;59.26
40574;BME280;26283;49.020;8.644;2023-02-18T01:03:28;100184.66;;;11.93;59.24
40574;BME280;26283;49.020;8.644;2023-02-18T01:05:54;100191.72;;;11.94;59.23
40574;BME280;26283;49.020;8.644;2023-02-18T01:08:20;100183.63;;;11.94;59.24
40574;BME280;26283;49.020;8.644;2023-02-18T01:10:48;100199.63;;;11.96;59.24
40574;BME280;26283;49.020;8.644;2023-02-18T01:13:15;100184.25;;;11.96;59.24
40574;BME280;26283;49.020;8.644;2023-02-18T01:15:41;100198.78;;;11.95;59.21
40574;BME280;26283;49.020;8.644;2023-02-18T01:18:08;100191.53;;;11.96;59.22
40574;BME280;26283;49.020;8.644;2023-02-18T01:20:35;100194.22;;;11.96;59.23
40574;BME280;26283;49.020;8.644;2023-02-18T01:23:01;100190.91;;;11.94;59.22
40574;BME280;26283;49.020;8.644;2023-02-18T01:25:26;100197.75;;;11.96;59.22
40574;BME280;26283;49.020;8.644;2023-02-18T01:27:51;100191.31;;;11.97;59.21
40574;BME280;26283;49.020;8.644;2023-02-18T01:30:18;100195.06;;;11.96;59.21
40574;BME280;26283;49.020;8.644;2023-02-18T01:32:44;100187.78;;;11.97;59.19
40574;BME280;26283;49.020;8.644;2023-02-18T01:35:11;100177.19;;;11.95;59.18
40574;BME280;26283;49.020;8.644;2023-02-18T01:37:37;100175.31;;;11.96;59.17
40574;BME280;26283;49.020;8.644;2023-02-18T01:40:03;100176.97;;;11.97;59.18
40574;BME280;26283;49.020;8.644;2023-02-18T01:42:29;100178.66;;;11.98;59.17
40574;BME280;26283;49.020;8.644;2023-02-18T01:46:16;100177.81;;;11.97;59.16
40574;BME280;26283;49.020;8.644;2023-02-18T01:48:12;100174.28;;;11.97;59.16
40574;BME280;26283;49.020;8.644;2023-02-18T01:50:43;100172.63;;;11.96;59.11
40574;BME280;26283;49.020;8.644;2023-02-18T01:53:09;100183.22;;;11.97;59.14
40574;BME280;26283;49.020;8.644;2023-02-18T01:55:37;100168.03;;;11.96;59.15
40574;BME280;26283;49.020;8.644;2023-02-18T01:58:03;100180.53;;;11.97;59.17
40574;BME280;26283;49.020;8.644;2023-02-18T02:00:29;100169.72;;;11.97;59.16
40574;BME280;26283;49.020;8.644;2023-02-18T02:02:56;100167.84;;;11.98;59.15
40574;BME280;26283;49.020;8.644;2023-02-18T02:05:22;100176.78;;;11.98;59.14
40574;BME280;26283;49.020;8.644;2023-02-18T02:07:53;100172.41;;;11.97;59.13
40574;BME280;26283;49.020;8.644;2023-02-18T02:10:19;100168.88;;;11.97;59.12
40574;BME280;26283;49.020;8.644;2023-02-18T02:13:24;100166.81;;;11.99;59.10
40574;BME280;26283;49.020;8.644;2023-02-18T02:16:05;100161.41;;;11.99;59.09
40574;BME280;26283;49.020;8.644;2023-02-18T02:27:10;100155.16;;;11.98;59.09
40574;BME280;26283;49.020;8.644;2023-02-18T02:30:17;100156.00;;;11.99;59.10
40574;BME280;26283;49.020;8.644;2023-02-18T02:35:39;100165.34;;;11.96;59.08
40574;BME280;26283;49.020;8.644;2023-02-18T02:38:33;100171.38;;;11.98;59.10
40574;BME280;26283;49.020;8.644;2023-02-18T02:41:17;100156.19;;;11.97;59.14
40574;BME280;26283;49.020;8.644;2023-02-18T02:44:23;100158.91;;;11.97;59.14
40574;BME280;26283;49.020;8.644;2023-02-18T02:46:57;100159.75;;;11.98;59.13
40574;BME280;26283;49.020;8.644;2023-02-18T02:52:13;100167.84;;;11.98;59.11
40574;BME280;26283;49.020;8.644;2023-02-18T02:54:41;100162.44;;;11.98;59.10
40574;BME280;26283;49.020;8.644;2023-02-18T02:59:43;100150.59;;;11.99;59.09
40574;BME280;26283;49.020;8.644;2023-02-18T03:10:35;100134.38;;;11.99;59.04
40574;BME280;26283;49.020;8.644;2023-02-18T03:16:00;100127.94;;;12.00;58.99
40574;BME280;26283;49.020;8.644;2023-02-18T03:18:36;100126.91;;;12.01;59.01
40574;BME280;26283;49.020;8.644;2023-02-18T03:21:10;100119.00;;;11.99;58.97
40574;BME280;26283;49.020;8.644;2023-02-18T03:24:05;100115.28;;;12.00;58.95
40574;BME280;26283;49.020;8.644;2023-02-18T03:26:29;100102.81;;;11.99;58.96
40574;BME280;26283;49.020;8.644;2023-02-18T03:28:59;100105.50;;;11.99;58.93
40574;BME280;26283;49.020;8.644;2023-02-18T03:31:28;100108.84;;;12.01;58.93
40574;BME280;26283;49.020;8.644;2023-02-18T03:34:07;100094.69;;;11.99;58.93
40574;BME280;26283;49.020;8.644;2023-02-18T03:36:34;100094.50;;;12.01;58.94
40574;BME280;26283;49.020;8.644;2023-02-18T03:39:16;100109.88;;;12.00;58.91
40574;BME280;26283;49.020;8.644;2023-02-18T03:41:43;100110.72;;;12.01;58.93
40574;BME280;26283;49.020;8.644;2023-02-18T03:44:09;100109.66;;;12.02;58.90
40574;BME280;26283;49.020;8.644;2023-02-18T03:46:37;100104.25;;;12.02;58.91
40574;BME280;26283;49.020;8.644;2023-02-18T03:49:03;100098.84;;;12.02;58.91
40574;BME280;26283;49.020;8.644;2023-02-18T03:51:28;100097.00;;;12.02;58.90
40574;BME280;26283;49.020;8.644;2023-02-18T03:53:53;100088.06;;;12.02;58.89
40574;BME280;26283;49.020;8.644;2023-02-18T03:56:19;100088.88;;;12.02;58.88
40574;BME280;26283;49.020;8.644;2023-02-18T03:58:45;100081.63;;;12.03;58.87
40574;BME280;26283;49.020;8.644;2023-02-18T04:01:11;100079.94;;;12.02;58.87
40574;BME280;26283;49.020;8.644;2023-02-18T04:03:36;100072.47;;;12.04;58.86
40574;BME280;26283;49.020;8.644;2023-02-18T04:06:02;100081.63;;;12.03;58.84
40574;BME280;26283;49.020;8.644;2023-02-18T04:08:28;100078.09;;;12.02;58.83
40574;BME280;26283;49.020;8.644;2023-02-18T04:10:53;100091.37;;;12.04;58.85
40574;BME280;26283;49.020;8.644;2023-02-18T04:13:18;100085.97;;;12.04;58.85
40574;BME280;26283;49.020;8.644;2023-02-18T04:15:44;100087.84;;;12.04;58.86
40574;BME280;26283;49.020;8.644;2023-02-18T04:18:10;100085.16;;;12.04;58.84
40574;BME280;26283;49.020;8.644;2023-02-18T04:20:36;100085.34;;;12.02;58.83
40574;BME280;26283;49.020;8.644;2023-02-18T04:23:02;100075.38;;;12.02;58.83
40574;BME280;26283;49.020;8.644;2023-02-18T04:25:28;100087.84;;;12.04;58.84
40574;BME280;26283;49.020;8.644;2023-02-18T04:27:53;100094.09;;;12.04;58.83
40574;BME280;26283;49.020;8.644;2023-02-18T04:30:19;100091.37;;;12.04;58.83
40574;BME280;26283;49.020;8.644;2023-02-18T04:32:44;100081.41;;;12.05;58.82
40574;BME280;26283;49.020;8.644;2023-02-18T04:35:09;100084.09;;;12.05;58.81
40574;BME280;26283;49.020;8.644;2023-02-18T04:37:35;100088.69;;;12.04;58.81
40574;BME280;26283;49.020;8.644;2023-02-18T04:40:00;100079.53;;;12.05;58.81
40574;BME280;26283;49.020;8.644;2023-02-18T04:42:26;100088.69;;;12.04;58.80
40574;BME280;26283;49.020;8.644;2023-02-18T04:44:51;100091.37;;;12.04;58.80
40574;BME280;26283;49.020;8.644;2023-02-18T04:47:16;100084.09;;;12.05;58.79
40574;BME280;26283;49.020;8.644;2023-02-18T04:49:42;100076.84;;;12.05;58.79
40574;BME280;26283;49.020;8.644;2023-02-18T04:52:07;100083.28;;;12.04;58.79
40574;BME280;26283;49.020;8.644;2023-02-18T04:54:32;100091.37;;;12.04;58.81
40574;BME280;26283;49.020;8.644;2023-02-18T04:56:58;100088.69;;;12.04;58.82
40574;BME280;26283;49.020;8.644;2023-02-18T04:59:23;100098.66;;;12.04;58.82
40574;BME280;26283;49.020;8.644;2023-02-18T05:01:49;100090.34;;;12.05;58.80
40574;BME280;26283;49.020;8.644;2023-02-18T05:04:14;100082.25;;;12.05;58.80
40574;BME280;26283;49.020;8.644;2023-02-18T05:06:42;100084.09;;;12.05;58.79
40574;BME280;26283;49.020;8.644;2023-02-18T05:09:07;100083.28;;;12.04;58.78
40574;BME280;26283;49.020;8.644;2023-02-18T05:11:33;100080.56;;;12.04;58.78
40574;BME280;26283;49.020;8.644;2023-02-18T05:13:58;100087.66;;;12.05;58.78
40574;BME280;26283;49.020;8.644;2023-02-18T05:16:24;100082.25;;;12.05;58.79
40574;BME280;26283;49.020;8.644;2023-02-18T05:18:49;100086.81;;;12.05;58.78
40574;BME280;26283;49.020;8.644;2023-02-18T05:21:15;100077.87;;;12.04;58.77
40574;BME280;26283;49.020;8.644;2023-02-18T05:23:40;100079.53;;;12.05;58.76
40574;BME280;26283;49.020;8.644;2023-02-18T05:26:05;100065.19;;;12.05;58.75
40574;BME280;26283;49.020;8.644;2023-02-18T05:28:31;100069.78;;;12.04;58.75
40574;BME280;26283;49.020;8.644;2023-02-18T05:30:57;100063.34;;;12.05;58.75
40574;BME280;26283;49.020;8.644;2023-02-18T05:33:22;100055.22;;;12.05;58.75
40574;BME280;26283;49.020;8.644;2023-02-18T05:35:48;100061.47;;;12.06;58.75
40574;BME280;26283;49.020;8.644;2023-02-18T05:38:13;100059.59;;;12.06;58.75
40574;BME280;26283;49.020;8.644;2023-02-18T05:40:39;100054.19;;;12.06;58.75
40574;BME280;26283;49.020;8.644;2023-02-18T05:43:04;100057.72;;;12.07;58.74
40574;BME280;26283;49.020;8.644;2023-02-18T05:45:29;100053.34;;;12.06;58.74
40574;BME280;26283;49.020;8.644;2023-02-18T05:47:55;100045.25;;;12.06;58.75
40574;BME280;26283;49.020;8.644;2023-02-18T05:50:20;100047.13;;;12.05;58.74
40574;BME280;26283;49.020;8.644;2023-02-18T05:52:45;100058.75;;;12.06;58.74
40574;BME280;26283;49.020;8.644;2023-02-18T05:55:11;100056.06;;;12.06;58.75
40574;BME280;26283;49.020;8.644;2023-02-18T05:57:36;100047.94;;;12.06;58.75
40574;BME280;26283;49.020;8.644;2023-02-18T06:00:04;100054.19;;;12.06;58.75
40574;BME280;26283;49.020;8.644;2023-02-18T06:02:29;100057.72;;;12.07;58.75
40574;BME280;26283;49.020;8.644;2023-02-18T06:04:55;100051.47;;;12.06;58.75
40574;BME280;26283;49.020;8.644;2023-02-18T06:07:20;100042.56;;;12.06;58.76
40574;BME280;26283;49.020;8.644;2023-02-18T06:09:45;100048.78;;;12.06;58.76
40574;BME280;26283;49.020;8.644;2023-02-18T06:12:11;100043.38;;;12.06;58.75
40574;BME280;26283;49.020;8.644;2023-02-18T06:14:37;100057.94;;;12.05;58.75
40574;BME280;26283;49.020;8.644;2023-02-18T06:17:06;100048.78;;;12.06;58.74
40574;BME280;26283;49.020;8.644;2023-02-18T06:19:32;100051.47;;;12.06;58.75
40574;BME280;26283;49.020;8.644;2023-02-18T06:21:57;100057.72;;;12.07;58.77
40574;BME280;26283;49.020;8.644;2023-02-18T06:24:22;100046.91;;;12.07;58.76
40574;BME280;26283;49.020;8.644;2023-02-18T06:26:48;100047.94;;;12.06;58.76
40574;BME280;26283;49.020;8.644;2023-02-18T06:29:13;100046.91;;;12.07;58.75
40574;BME280;26283;49.020;8.644;2023-02-18T06:31:38;100048.78;;;12.06;58.76
40574;BME280;26283;49.020;8.644;2023-02-18T06:34:04;100052.31;;;12.07;58.75
40574;BME280;26283;49.020;8.644;2023-02-18T06:36:30;100045.03;;;12.07;58.76
40574;BME280;26283;49.020;8.644;2023-02-18T06:38:55;100043.38;;;12.06;58.76
40574;BME280;26283;49.020;8.644;2023-02-18T06:41:22;100048.78;;;12.06;58.75
40574;BME280;26283;49.020;8.644;2023-02-18T06:43:47;100044.22;;;12.07;58.76
40574;BME280;26283;49.020;8.644;2023-02-18T06:46:13;100046.91;;;12.07;58.76
40574;BME280;26283;49.020;8.644;2023-02-18T06:48:38;100046.91;;;12.07;58.76
40574;BME280;26283;49.020;8.644;2023-02-18T06:51:05;100046.09;;;12.06;58.76
40574;BME280;26283;49.020;8.644;2023-02-18T06:53:30;100037.97;;;12.06;58.76
40574;BME280;26283;49.020;8.644;2023-02-18T06:55:56;100032.56;;;12.06;58.75
40574;BME280;26283;49.020;8.644;2023-02-18T06:58:21;100036.09;;;12.07;58.74
40574;BME280;26283;49.020;8.644;2023-02-18T07:00:47;100029.88;;;12.06;58.74
40574;BME280;26283;49.020;8.644;2023-02-18T07:03:13;100039.63;;;12.07;58.75
40574;BME280;26283;49.020;8.644;2023-02-18T07:05:39;100030.69;;;12.07;58.75
40574;BME280;26283;49.020;8.644;2023-02-18T07:08:05;100028.00;;;12.07;58.76
40574;BME280;26283;49.020;8.644;2023-02-18T07:10:30;100029.88;;;12.06;58.76
40574;BME280;26283;49.020;8.644;2023-02-18T07:12:56;100033.41;;;12.07;58.75
40574;BME280;26283;49.020;8.644;2023-02-18T07:15:21;100024.47;;;12.06;58.75
40574;BME280;26283;49.020;8.644;2023-02-18T07:17:49;100023.44;;;12.07;58.75
40574;BME280;26283;49.020;8.644;2023-02-18T07:20:16;100017.19;;;12.07;58.74
40574;BME280;26283;49.020;8.644;2023-02-18T07:22:41;100009.91;;;12.07;58.74
40574;BME280;26283;49.020;8.644;2023-02-18T07:25:07;100001.81;;;12.07;58.75
40574;BME280;26283;49.020;8.644;2023-02-18T07:27:32;100007.22;;;12.07;58.74
40574;BME280;26283;49.020;8.644;2023-02-18T07:29:57;100007.22;;;12.07;58.75
40574;BME280;26283;49.020;8.644;2023-02-18T07:32:23;100004.50;;;12.07;58.77
40574;BME280;26283;49.020;8.644;2023-02-18T07:34:51;99994.75;;;12.06;58.76
40574;BME280;26283;49.020;8.644;2023-02-18T07:37:17;99993.72;;;12.07;58.76
40574;BME280;26283;49.020;8.644;2023-02-18T07:39:42;99994.75;;;12.06;58.77
40574;BME280;26283;49.020;8.644;2023-02-18T07:42:09;99993.91;;;12.06;58.77
40574;BME280;26283;49.020;8.644;2023-02-18T07:44:35;100008.88;;;12.08;58.79
40574;BME280;26283;49.020;8.644;2023-02-18T07:47:01;100007.22;;;12.07;58.79
40574;BME280;26283;49.020;8.644;2023-02-18T07:49:27;100001.81;;;12.07;58.80
40574;BME280;26283;49.020;8.644;2023-02-18T07:51:53;100006.37;;;12.07;58.80
40574;BME280;26283;49.020;8.644;2023-02-18T07:54:18;100002.66;;;12.08;58.80
40574;BME280;26283;49.020;8.644;2023-02-18T07:56:47;99993.72;;;12.07;58.79
40574;BME280;26283;49.020;8.644;2023-02-18T07:59:12;99996.41;;;12.07;58.79
40574;BME280;26283;49.020;8.644;2023-02-18T08:01:39;100007.84;;;12.09;58.80
40574;BME280;26283;49.020;8.644;2023-02-18T08:04:05;100001.81;;;12.07;58.79
40574;BME280;26283;49.020;8.644;2023-02-18T08:06:33;100002.66;;;12.08;58.80
40574;BME280;26283;49.020;8.644;2023-02-18T08:08:59;99996.41;;;12.07;58.81
40574;BME280;26283;49.020;8.644;2023-02-18T08:11:27;99986.44;;;12.08;58.80
40574;BME280;26283;49.020;8.644;2023-02-18T08:13:53;99987.47;;;12.07;58.80
40574;BME280;26283;49.020;8.644;2023-02-18T08:16:19;99990.81;;;12.09;58.80
40574;BME280;26283;49.020;8.644;2023-02-18T08:18:45;99992.66;;;12.08;58.81
40574;BME280;26283;49.020;8.644;2023-02-18T08:21:12;99997.25;;;12.08;58.82
40574;BME280;26283;49.020;8.644;2023-02-18T08:23:38;99988.94;;;12.09;58.95
40574;BME280;26283;49.020;8.644;2023-02-18T08:26:03;99998.25;;;12.13;59.12
40574;BME280;26283;49.020;8.644;2023-02-18T08:28:29;100009.25;;;12.18;59.28
40574;BME280;26283;49.020;8.644;2023-02-18T08:30:54;99991.38;;;12.17;59.32
40574;BME280;26283;49.020;8.644;2023-02-18T08:33:20;99997.62;;;12.18;59.38
40574;BME280;26283;49.020;8.644;2023-02-18T08:35:48;99984.13;;;12.18;59.44
40574;BME280;26283;49.020;8.644;2023-02-18T08:38:13;99983.28;;;12.17;59.42
40574;BME280;26283;49.020;8.644;2023-02-18T08:40:39;99981.41;;;12.18;59.44
40574;BME280;26283;49.020;8.644;2023-02-18T08:43:08;99978.91;;;12.16;59.45
40574;BME280;26283;49.020;8.644;2023-02-18T08:45:33;99969.78;;;12.17;59.50
40574;BME280;26283;49.020;8.644;2023-02-18T08:47:59;99980.56;;;12.17;59.52
40574;BME280;26283;49.020;8.644;2023-02-18T08:50:24;99968.09;;;12.16;59.56
40574;BME280;26283;49.020;8.644;2023-02-18T08:52:52;99983.50;;;12.16;59.57
40574;BME280;26283;49.020;8.644;2023-02-18T08:55:18;99965.63;;;12.15;59.58
40574;BME280;26283;49.020;8.644;2023-02-18T08:57:48;99974.56;;;12.15;59.57
40574;BME280;26283;49.020;8.644;2023-02-18T09:00:15;99953.97;;;12.14;59.55
40574;BME280;26283;49.020;8.644;2023-02-18T09:02:41;99953.97;;;12.14;59.53
40574;BME280;26283;49.020;8.644;2023-02-18T09:05:07;99972.91;;;12.14;59.49
40574;BME280;26283;49.020;8.644;2023-02-18T09:07:34;99961.25;;;12.14;59.47
40574;BME280;26283;49.020;8.644;2023-02-18T09:09:59;99962.91;;;12.15;59.45
40574;BME280;26283;49.020;8.644;2023-02-18T09:12:25;99945.03;;;12.14;59.44
40574;BME280;26283;49.020;8.644;2023-02-18T09:14:50;99953.16;;;12.14;59.41
40574;BME280;26283;49.020;8.644;2023-02-18T09:17:15;99953.16;;;12.14;59.41
40574;BME280;26283;49.020;8.644;2023-02-18T09:19:41;99975.59;;;12.14;59.41
40574;BME280;26283;49.020;8.644;2023-02-18T09:22:06;99964.78;;;12.14;59.40
40574;BME280;26283;49.020;8.644;2023-02-18T09:24:39;99956.69;;;12.14;59.39
40574;BME280;26283;49.020;8.644;2023-02-18T09:27:05;99971.03;;;12.15;59.39
40574;BME280;26283;49.020;8.644;2023-02-18T09:29:31;99970.19;;;12.14;59.39
40574;BME280;26283;49.020;8.644;2023-02-18T09:32:00;99972.91;;;12.14;59.37
40574;BME280;26283;49.020;8.644;2023-02-18T09:34:26;99971.03;;;12.15;59.37
40574;BME280;26283;49.020;8.644;2023-02-18T09:36:52;99951.06;;;12.16;59.36
40574;BME280;26283;49.020;8.644;2023-02-18T09:39:19;99973.72;;;12.15;59.36
40574;BME280;26283;49.020;8.644;2023-02-18T09:41:51;99963.75;;;12.15;59.34
40574;BME280;26283;49.020;8.644;2023-02-18T09:44:49;99969.16;;;12.15;59.32
40574;BME280;26283;49.020;8.644;2023-02-18T09:49:51;99968.09;;;12.16;59.29
40574;BME280;26283;49.020;8.644;2023-02-18T09:52:21;99965.41;;;12.16;59.30
40574;BME280;26283;49.020;8.644;2023-02-18T09:54:48;99973.50;;;12.16;59.30
40574;BME280;26283;49.020;8.644;2023-02-18T09:57:22;99957.31;;;12.16;59.29
40574;BME280;26283;49.020;8.644;2023-02-18T09:59:53;99958.97;;;12.17;59.29
40574;BME280;26283;49.020;8.644;2023-02-18T10:02:21;99967.91;;;12.18;59.28
40574;BME280;26283;49.020;8.644;2023-02-18T10:04:47;99958.97;;;12.17;59.26
40574;BME280;26283;49.020;8.644;2023-02-18T10:07:30;99966.03;;;12.18;59.25
40574;BME280;26283;49.020;8.644;2023-02-18T10:10:00;99981.19;;;12.19;59.27
40574;BME280;26283;49.020;8.644;2023-02-18T10:12:28;99991.19;;;12.19;59.25
40574;BME280;26283;49.020;8.644;2023-02-18T10:14:57;99985.78;;;12.19;59.23
40574;BME280;26283;49.020;8.644;2023-02-18T10:17:25;99979.34;;;12.20;59.24
40574;BME280;26283;49.020;8.644;2023-02-18T10:19:53;99977.47;;;12.20;59.23
40574;BME280;26283;49.020;8.644;2023-02-18T10:22:21;99985.56;;;12.20;59.21
40574;BME280;26283;49.020;8.644;2023-02-18T10:24:59;99986.41;;;12.21;59.20
40574;BME280;26283;49.020;8.644;2023-02-18T10:27:29;99996.16;;;12.22;59.20
40574;BME280;26283;49.020;8.644;2023-02-18T10:29:59;99990.75;;;12.22;59.17
40574;BME280;26283;49.020;8.644;2023-02-18T10:32:31;99987.03;;;12.23;59.15
40574;BME280;26283;49.020;8.644;2023-02-18T10:35:34;99983.47;;;12.22;59.13
40574;BME280;26283;49.020;8.644;2023-02-18T10:38:14;99978.91;;;12.23;59.12
40574;BME280;26283;49.020;8.644;2023-02-18T10:43:43;99974.34;;;12.23;59.09
40574;BME280;26283;49.020;8.644;2023-02-18T10:51:49;99966.22;;;12.23;59.10
40574;BME280;26283;49.020;8.644;2023-02-18T10:54:17;99966.03;;;12.25;59.00
40574;BME280;26283;49.020;8.644;2023-02-18T10:56:50;99957.09;;;12.24;58.98
40574;BME280;26283;49.020;8.644;2023-02-18T11:01:54;99963.09;;;12.26;58.99
40574;BME280;26283;49.020;8.644;2023-02-18T11:04:26;99966.84;;;12.25;59.01
40574;BME280;26283;49.020;8.644;2023-02-18T11:06:53;99947.94;;;12.25;58.99
40574;BME280;26283;49.020;8.644;2023-02-18T11:09:40;99959.38;;;12.27;58.98
40574;BME280;26283;49.020;8.644;2023-02-18T11:12:19;99958.53;;;12.27;58.99
40574;BME280;26283;49.020;8.644;2023-02-18T11:14:49;99951.25;;;12.27;58.94
40574;BME280;26283;49.020;8.644;2023-02-18T11:19:41;99957.28;;;12.29;58.89
40574;BME280;26283;49.020;8.644;2023-02-18T11:22:45;99957.28;;;12.29;58.89
40574;BME280;26283;49.020;8.644;2023-02-18T11:25:26;99945.44;;;12.30;58.90
40574;BME280;26283;49.020;8.644;2023-02-18T11:27:57;99947.31;;;12.30;58.84
40574;BME280;26283;49.020;8.644;2023-02-18T11:30:30;99948.34;;;12.29;58.85
40574;BME280;26283;49.020;8.644;2023-02-18T11:33:30;99951.66;;;12.31;58.84
40574;BME280;26283;49.020;8.644;2023-02-18T11:36:03;99940.03;;;12.30;58.86
40574;BME280;26283;49.020;8.644;2023-02-18T11:38:34;99947.09;;;12.31;58.81
40574;BME280;26283;49.020;8.644;2023-02-18T11:41:14;99950.63;;;12.32;58.81
40574;BME280;26283;49.020;8.644;2023-02-18T11:43:42;99936.28;;;12.31;58.83
40574;BME280;26283;49.020;8.644;2023-02-18T11:46:10;99922.56;;;12.33;58.80
40574;BME280;26283;49.020;8.644;2023-02-18T11:48:36;99932.53;;;12.32;58.79
40574;BME280;26283;49.020;8.644;2023-02-18T11:51:02;99926.09;;;12.33;58.77
40574;BME280;26283;49.020;8.644;2023-02-18T11:53:33;99926.09;;;12.33;58.77
40574;BME280;26283;49.020;8.644;2023-02-18T11:56:02;99922.31;;;12.34;58.75
40574;BME280;26283;49.020;8.644;2023-02-18T11:58:37;99926.09;;;12.33;58.72
40574;BME280;26283;49.020;8.644;2023-02-18T12:01:05;99922.09;;;12.36;58.72
40574;BME280;26283;49.020;8.644;2023-02-18T12:03:57;99915.03;;;12.35;58.70
40574;BME280;26283;49.020;8.644;2023-02-18T12:06:31;99914.00;;;12.36;58.71
40574;BME280;26283;49.020;8.644;2023-02-18T12:09:13;99912.13;;;12.36;58.68
40574;BME280;26283;49.020;8.644;2023-02-18T12:11:50;99912.13;;;12.36;58.69
40574;BME280;26283;49.020;8.644;2023-02-18T12:14:19;99921.06;;;12.37;58.71
40574;BME280;26283;49.020;8.644;2023-02-18T12:19:36;99892.16;;;12.37;58.67
40574;BME280;26283;49.020;8.644;2023-02-18T12:22:35;99902.97;;;12.37;58.67
40574;BME280;26283;49.020;8.644;2023-02-18T12:28:11;99908.38;;;12.37;58.63
40574;BME280;26283;49.020;8.644;2023-02-18T12:41:31;99883.00;;;12.39;58.63
40574;BME280;26283;49.020;8.644;2023-02-18T12:44:17;99881.13;;;12.39;58.62
40574;BME280;26283;49.020;8.644;2023-02-18T13:13:58;99853.69;;;12.42;58.56
40574;BME280;26283;49.020;8.644;2023-02-18T13:16:25;99849.09;;;12.43;58.59
40574;BME280;26283;49.020;8.644;2023-02-18T13:21:17;99842.44;;;12.45;58.54
40574;BME280;26283;49.020;8.644;2023-02-18T13:23:54;99839.94;;;12.44;58.54
40574;BME280;26283;49.020;8.644;2023-02-18T13:26:21;99851.38;;;12.46;58.54
40574;BME280;26283;49.020;8.644;2023-02-18T13:32:00;99842.22;;;12.47;58.44
40574;BME280;26283;49.020;8.644;2023-02-18T13:37:34;99836.59;;;12.48;58.40
40574;BME280;26283;49.020;8.644;2023-02-18T13:40:15;99815.19;;;12.47;58.42
40574;BME280;26283;49.020;8.644;2023-02-18T13:42:42;99809.34;;;12.50;58.39
40574;BME280;26283;49.020;8.644;2023-02-18T13:45:30;99812.06;;;12.50;58.40
40574;BME280;26283;49.020;8.644;2023-02-18T13:47:56;99804.78;;;12.50;58.43
40574;BME280;26283;49.020;8.644;2023-02-18T13:50:29;99803.72;;;12.51;58.37
40574;BME280;26283;49.020;8.644;2023-02-18T13:58:49;99815.16;;;12.53;58.35
40574;BME280;26283;49.020;8.644;2023-02-18T14:01:22;99785.19;;;12.55;58.31
40574;BME280;26283;49.020;8.644;2023-02-18T14:03:56;99782.50;;;12.55;58.29
40574;BME280;26283;49.020;8.644;2023-02-18T14:06:31;99782.50;;;12.55;58.30
40574;BME280;26283;49.020;8.644;2023-02-18T14:11:55;99795.56;;;12.58;58.28
40574;BME280;26283;49.020;8.644;2023-02-18T14:22:49;99818.84;;;12.59;58.23
40574;BME280;26283;49.020;8.644;2023-02-18T14:25:21;99805.31;;;12.59;58.19
40574;BME280;26283;49.020;8.644;2023-02-18T14:27:52;99825.06;;;12.59;58.20
40574;BME280;26283;49.020;8.644;2023-02-18T14:32:47;99812.38;;;12.60;58.19
40574;BME280;26283;49.020;8.644;2023-02-18T14:40:55;99796.09;;;12.73;57.83
40574;BME280;26283;49.020;8.644;2023-02-18T14:46:09;99799.12;;;12.83;57.56
40574;BME280;26283;49.020;8.644;2023-02-18T14:51:42;99805.53;;;12.89;57.41
40574;BME280;26283;49.020;8.644;2023-02-18T14:54:15;99798.84;;;12.91;57.25
40574;BME280;26283;49.020;8.644;2023-02-18T14:57:00;99801.34;;;12.93;57.19
40574;BME280;26283;49.020;8.644;2023-02-18T14:59:33;99815.47;;;12.95;57.13
40574;BME280;26283;49.020;8.644;2023-02-18T15:01:59;99829.62;;;12.97;57.07
40574;BME280;26283;49.020;8.644;2023-02-18T15:04:25;99816.91;;;12.97;56.96
40574;BME280;26283;49.020;8.644;2023-02-18T15:06:59;99822.09;;;12.99;57.00
40574;BME280;26283;49.020;8.644;2023-02-18T15:09:25;99809.38;;;12.99;57.02
40574;BME280;26283;49.020;8.644;2023-02-18T15:12:03;99817.28;;;13.01;57.05